sensor_id;sensor_type;location;lat;lon;timestamp;pressure;altitude;pressure_sealevel;temperature;humidity
53484;BME280;75581;50.088;19.966;2024-02-26T00:00:30;98279.36;;;7.26;64.65
53484;BME280;75581;50.088;19.966;2024-02-26T00:03:19;98281.29;;;7.20;64.78
53484;BME280;75581;50.088;19.966;2024-02-26T00:05:48;98286.16;;;7.16;64.99
53484;BME280;75581;50.088;19.966;2024-02-26T00:08:17;98288.34;;;7.13;65.09
53484;BME280;75581;50.088;19.966;2024-02-26T00:10:46;98284.48;;;7.10;65.26
53484;BME280;75581;50.088;19.966;2024-02-26T00:13:15;98286.51;;;7.09;65.27
53484;BME280;75581;50.088;19.966;2024-02-26T00:15:44;98288.27;;;7.07;65.37
53484;BME280;75581;50.088;19.966;2024-02-26T00:18:14;98286.29;;;7.07;65.58
53484;BME280;75581;50.088;19.966;2024-02-26T00:20:43;98286.40;;;7.07;65.59
53484;BME280;75581;50.088;19.966;2024-02-26T00:23:15;98286.50;;;7.05;65.61
53484;BME280;75581;50.088;19.966;2024-02-26T00:25:44;98282.73;;;7.02;65.70
53484;BME280;75581;50.088;19.966;2024-02-26T00:28:13;98285.36;;;7.01;65.70
53484;BME280;75581;50.088;19.966;2024-02-26T00:30:42;98285.89;;;6.98;65.85
53484;BME280;75581;50.088;19.966;2024-02-26T00:33:11;98283.19;;;6.96;65.96
53484;BME280;75581;50.088;19.966;2024-02-26T00:35:40;98278.41;;;6.93;65.97
53484;BME280;75581;50.088;19.966;2024-02-26T00:38:09;98277.63;;;6.84;66.00
53484;BME280;75581;50.088;19.966;2024-02-26T00:40:38;98275.17;;;6.78;66.17
53484;BME280;75581;50.088;19.966;2024-02-26T00:43:08;98268.41;;;6.73;66.33
53484;BME280;75581;50.088;19.966;2024-02-26T00:45:37;98265.06;;;6.66;66.28
53484;BME280;75581;50.088;19.966;2024-02-26T00:48:06;98267.01;;;6.60;66.47
53484;BME280;75581;50.088;19.966;2024-02-26T00:50:36;98262.48;;;6.55;66.61
53484;BME280;75581;50.088;19.966;2024-02-26T00:53:05;98265.84;;;6.50;66.83
53484;BME280;75581;50.088;19.966;2024-02-26T00:55:34;98266.25;;;6.47;67.00
53484;BME280;75581;50.088;19.966;2024-02-26T00:58:03;98262.80;;;6.45;67.11
53484;BME280;75581;50.088;19.966;2024-02-26T01:00:32;98259.89;;;6.42;67.17
53484;BME280;75581;50.088;19.966;2024-02-26T01:03:02;98264.86;;;6.39;67.19
53484;BME280;75581;50.088;19.966;2024-02-26T01:05:32;98269.08;;;6.35;67.23
53484;BME280;75581;50.088;19.966;2024-02-26T01:08:01;98269.54;;;6.32;67.30
53484;BME280;75581;50.088;19.966;2024-02-26T01:10:30;98264.70;;;6.29;67.25
53484;BME280;75581;50.088;19.966;2024-02-26T01:13:00;98262.05;;;6.24;67.43
53484;BME280;75581;50.088;19.966;2024-02-26T01:15:29;98269.09;;;6.20;67.46
53484;BME280;75581;50.088;19.966;2024-02-26T01:17:58;98259.08;;;6.12;67.36
53484;BME280;75581;50.088;19.966;2024-02-26T01:20:27;98265.92;;;6.03;67.43
53484;BME280;75581;50.088;19.966;2024-02-26T01:22:56;98263.96;;;5.93;67.61
53484;BME280;75581;50.088;19.966;2024-02-26T01:25:25;98271.48;;;5.85;67.76
53484;BME280;75581;50.088;19.966;2024-02-26T01:27:54;98273.89;;;5.76;67.90
53484;BME280;75581;50.088;19.966;2024-02-26T01:30:24;98279.55;;;5.69;67.93
53484;BME280;75581;50.088;19.966;2024-02-26T01:32:53;98280.39;;;5.66;68.11
53484;BME280;75581;50.088;19.966;2024-02-26T01:35:22;98284.59;;;5.64;68.14
53484;BME280;75581;50.088;19.966;2024-02-26T01:37:51;98278.14;;;5.61;68.18
53484;BME280;75581;50.088;19.966;2024-02-26T01:40:20;98277.46;;;5.57;68.11
53484;BME280;75581;50.088;19.966;2024-02-26T01:42:52;98278.29;;;5.53;68.22
53484;BME280;75581;50.088;19.966;2024-02-26T01:45:22;98273.64;;;5.48;68.22
53484;BME280;75581;50.088;19.966;2024-02-26T01:47:54;98270.80;;;5.43;68.38
53484;BME280;75581;50.088;19.966;2024-02-26T01:50:24;98268.77;;;5.36;68.58
53484;BME280;75581;50.088;19.966;2024-02-26T01:52:54;98273.27;;;5.31;68.81
53484;BME280;75581;50.088;19.966;2024-02-26T01:55:23;98273.07;;;5.28;68.87
53484;BME280;75581;50.088;19.966;2024-02-26T01:57:53;98270.81;;;5.26;69.03
53484;BME280;75581;50.088;19.966;2024-02-26T02:00:23;98272.48;;;5.24;69.07
53484;BME280;75581;50.088;19.966;2024-02-26T02:02:52;98274.28;;;5.21;69.17
53484;BME280;75581;50.088;19.966;2024-02-26T02:05:24;98280.55;;;5.16;69.20
53484;BME280;75581;50.088;19.966;2024-02-26T02:07:55;98282.81;;;5.13;69.30
53484;BME280;75581;50.088;19.966;2024-02-26T02:10:25;98279.21;;;5.12;69.36
53484;BME280;75581;50.088;19.966;2024-02-26T02:12:55;98272.15;;;5.10;69.37
53484;BME280;75581;50.088;19.966;2024-02-26T02:15:23;98271.55;;;5.06;69.44
53484;BME280;75581;50.088;19.966;2024-02-26T02:17:53;98264.68;;;5.03;69.43
53484;BME280;75581;50.088;19.966;2024-02-26T02:20:31;98264.39;;;4.95;69.50
53484;BME280;75581;50.088;19.966;2024-02-26T02:23:02;98273.70;;;4.88;69.57
53484;BME280;75581;50.088;19.966;2024-02-26T02:25:31;98275.80;;;4.83;69.92
53484;BME280;75581;50.088;19.966;2024-02-26T02:28:00;98279.31;;;4.79;70.06
53484;BME280;75581;50.088;19.966;2024-02-26T02:30:30;98277.26;;;4.75;70.21
53484;BME280;75581;50.088;19.966;2024-02-26T02:33:01;98277.81;;;4.73;70.35
53484;BME280;75581;50.088;19.966;2024-02-26T02:35:31;98280.12;;;4.70;70.33
53484;BME280;75581;50.088;19.966;2024-02-26T02:37:59;98284.61;;;4.66;70.37
53484;BME280;75581;50.088;19.966;2024-02-26T02:40:28;98279.97;;;4.62;70.54
53484;BME280;75581;50.088;19.966;2024-02-26T02:42:57;98280.23;;;4.57;70.68
53484;BME280;75581;50.088;19.966;2024-02-26T02:45:28;98279.31;;;4.53;70.70
53484;BME280;75581;50.088;19.966;2024-02-26T02:47:57;98284.17;;;4.49;70.84
53484;BME280;75581;50.088;19.966;2024-02-26T02:50:26;98282.27;;;4.45;70.84
53484;BME280;75581;50.088;19.966;2024-02-26T02:52:57;98288.17;;;4.41;70.96
53484;BME280;75581;50.088;19.966;2024-02-26T02:55:27;98288.91;;;4.36;70.94
53484;BME280;75581;50.088;19.966;2024-02-26T02:57:56;98282.13;;;4.32;71.01
53484;BME280;75581;50.088;19.966;2024-02-26T03:00:25;98282.23;;;4.28;71.15
53484;BME280;75581;50.088;19.966;2024-02-26T03:02:54;98280.98;;;4.23;71.15
53484;BME280;75581;50.088;19.966;2024-02-26T03:05:23;98282.00;;;4.19;71.23
53484;BME280;75581;50.088;19.966;2024-02-26T03:07:52;98284.01;;;4.18;71.44
53484;BME280;75581;50.088;19.966;2024-02-26T03:10:21;98285.48;;;4.15;71.44
53484;BME280;75581;50.088;19.966;2024-02-26T03:12:50;98289.83;;;4.13;71.47
53484;BME280;75581;50.088;19.966;2024-02-26T03:15:19;98287.84;;;4.13;71.40
53484;BME280;75581;50.088;19.966;2024-02-26T03:17:48;98290.17;;;4.11;71.45
53484;BME280;75581;50.088;19.966;2024-02-26T03:20:18;98291.62;;;4.09;71.41
53484;BME280;75581;50.088;19.966;2024-02-26T03:22:48;98290.91;;;4.08;71.38
53484;BME280;75581;50.088;19.966;2024-02-26T03:25:17;98283.25;;;4.05;71.41
53484;BME280;75581;50.088;19.966;2024-02-26T03:27:46;98273.18;;;4.04;71.43
53484;BME280;75581;50.088;19.966;2024-02-26T03:30:14;98275.50;;;4.01;71.45
53484;BME280;75581;50.088;19.966;2024-02-26T03:32:44;98278.53;;;4.00;71.47
53484;BME280;75581;50.088;19.966;2024-02-26T03:35:13;98275.23;;;3.98;71.43
53484;BME280;75581;50.088;19.966;2024-02-26T03:37:42;98272.95;;;3.94;71.44
53484;BME280;75581;50.088;19.966;2024-02-26T03:40:12;98272.62;;;3.92;71.52
53484;BME280;75581;50.088;19.966;2024-02-26T03:42:43;98272.16;;;3.85;71.44
53484;BME280;75581;50.088;19.966;2024-02-26T03:45:12;98270.57;;;3.80;71.41
53484;BME280;75581;50.088;19.966;2024-02-26T03:47:41;98271.16;;;3.76;71.58
53484;BME280;75581;50.088;19.966;2024-02-26T03:50:10;98257.60;;;3.73;71.80
53484;BME280;75581;50.088;19.966;2024-02-26T03:52:39;98256.73;;;3.68;71.82
53484;BME280;75581;50.088;19.966;2024-02-26T03:55:08;98259.23;;;3.64;71.94
53484;BME280;75581;50.088;19.966;2024-02-26T03:57:38;98262.66;;;3.59;71.95
53484;BME280;75581;50.088;19.966;2024-02-26T04:00:07;98257.33;;;3.57;71.99
53484;BME280;75581;50.088;19.966;2024-02-26T04:02:40;98250.84;;;3.54;72.17
53484;BME280;75581;50.088;19.966;2024-02-26T04:05:10;98243.66;;;3.52;72.10
53484;BME280;75581;50.088;19.966;2024-02-26T04:07:40;98237.52;;;3.48;72.05
53484;BME280;75581;50.088;19.966;2024-02-26T04:10:10;98239.86;;;3.44;72.10
53484;BME280;75581;50.088;19.966;2024-02-26T04:12:41;98240.30;;;3.42;72.32
53484;BME280;75581;50.088;19.966;2024-02-26T04:15:10;98238.82;;;3.40;72.38
53484;BME280;75581;50.088;19.966;2024-02-26T04:17:39;98236.63;;;3.39;72.45
53484;BME280;75581;50.088;19.966;2024-02-26T04:20:14;98239.44;;;3.38;72.56
53484;BME280;75581;50.088;19.966;2024-02-26T04:22:43;98243.29;;;3.36;72.54
53484;BME280;75581;50.088;19.966;2024-02-26T04:25:13;98242.59;;;3.32;72.59
53484;BME280;75581;50.088;19.966;2024-02-26T04:27:42;98241.87;;;3.28;72.66
53484;BME280;75581;50.088;19.966;2024-02-26T04:30:11;98242.48;;;3.25;72.89
53484;BME280;75581;50.088;19.966;2024-02-26T04:32:40;98243.36;;;3.24;72.97
53484;BME280;75581;50.088;19.966;2024-02-26T04:35:10;98241.23;;;3.24;73.08
53484;BME280;75581;50.088;19.966;2024-02-26T04:37:39;98240.23;;;3.25;72.98
53484;BME280;75581;50.088;19.966;2024-02-26T04:40:09;98236.02;;;3.25;73.04
53484;BME280;75581;50.088;19.966;2024-02-26T04:42:38;98239.80;;;3.24;72.97
53484;BME280;75581;50.088;19.966;2024-02-26T04:45:08;98241.04;;;3.23;72.91
53484;BME280;75581;50.088;19.966;2024-02-26T04:47:37;98232.05;;;3.21;72.88
53484;BME280;75581;50.088;19.966;2024-02-26T04:50:06;98229.45;;;3.19;72.86
53484;BME280;75581;50.088;19.966;2024-02-26T04:52:36;98233.77;;;3.16;72.79
53484;BME280;75581;50.088;19.966;2024-02-26T04:55:06;98235.70;;;3.14;72.99
53484;BME280;75581;50.088;19.966;2024-02-26T04:57:35;98241.75;;;3.12;73.07
53484;BME280;75581;50.088;19.966;2024-02-26T05:00:05;98239.52;;;3.09;73.15
53484;BME280;75581;50.088;19.966;2024-02-26T05:02:34;98237.35;;;3.05;73.33
53484;BME280;75581;50.088;19.966;2024-02-26T05:05:07;98231.08;;;3.02;73.49
53484;BME280;75581;50.088;19.966;2024-02-26T05:07:41;98234.39;;;3.00;73.60
53484;BME280;75581;50.088;19.966;2024-02-26T05:10:13;98236.93;;;2.95;73.54
53484;BME280;75581;50.088;19.966;2024-02-26T05:12:42;98241.11;;;2.94;73.61
53484;BME280;75581;50.088;19.966;2024-02-26T05:15:11;98241.02;;;2.93;73.64
53484;BME280;75581;50.088;19.966;2024-02-26T05:17:44;98234.36;;;2.93;73.66
53484;BME280;75581;50.088;19.966;2024-02-26T05:20:14;98233.31;;;2.94;73.73
53484;BME280;75581;50.088;19.966;2024-02-26T05:22:42;98233.75;;;2.94;73.77
53484;BME280;75581;50.088;19.966;2024-02-26T05:25:11;98234.06;;;2.94;73.61
53484;BME280;75581;50.088;19.966;2024-02-26T05:27:44;98236.23;;;2.93;73.70
53484;BME280;75581;50.088;19.966;2024-02-26T05:30:13;98242.22;;;2.94;73.59
53484;BME280;75581;50.088;19.966;2024-02-26T05:32:42;98242.80;;;2.93;73.59
53484;BME280;75581;50.088;19.966;2024-02-26T05:35:12;98241.63;;;2.94;73.61
53484;BME280;75581;50.088;19.966;2024-02-26T05:37:41;98242.61;;;2.94;73.72
53484;BME280;75581;50.088;19.966;2024-02-26T05:40:10;98254.20;;;2.97;73.71
53484;BME280;75581;50.088;19.966;2024-02-26T05:42:39;98263.92;;;2.98;73.65
53484;BME280;75581;50.088;19.966;2024-02-26T05:45:08;98261.06;;;2.99;73.61
53484;BME280;75581;50.088;19.966;2024-02-26T05:47:37;98266.50;;;2.99;73.65
53484;BME280;75581;50.088;19.966;2024-02-26T05:50:11;98269.30;;;3.00;73.64
53484;BME280;75581;50.088;19.966;2024-02-26T05:52:41;98267.26;;;3.02;73.77
53484;BME280;75581;50.088;19.966;2024-02-26T05:55:10;98262.91;;;3.04;73.82
53484;BME280;75581;50.088;19.966;2024-02-26T05:57:39;98263.73;;;3.04;73.77
53484;BME280;75581;50.088;19.966;2024-02-26T06:00:08;98270.55;;;3.05;73.77
53484;BME280;75581;50.088;19.966;2024-02-26T06:02:42;98268.90;;;3.07;73.81
53484;BME280;75581;50.088;19.966;2024-02-26T06:05:11;98265.77;;;3.10;73.83
53484;BME280;75581;50.088;19.966;2024-02-26T06:07:40;98274.60;;;3.13;73.95
53484;BME280;75581;50.088;19.966;2024-02-26T06:10:10;98282.98;;;3.16;73.93
53484;BME280;75581;50.088;19.966;2024-02-26T06:12:39;98280.38;;;3.20;73.97
53484;BME280;75581;50.088;19.966;2024-02-26T06:15:09;98283.39;;;3.21;73.97
53484;BME280;75581;50.088;19.966;2024-02-26T06:17:39;98287.67;;;3.22;73.91
53484;BME280;75581;50.088;19.966;2024-02-26T06:20:08;98286.15;;;3.23;74.13
53484;BME280;75581;50.088;19.966;2024-02-26T06:22:41;98279.31;;;3.26;74.13
53484;BME280;75581;50.088;19.966;2024-02-26T06:25:10;98277.11;;;3.30;74.21
53484;BME280;75581;50.088;19.966;2024-02-26T06:27:40;98275.45;;;3.33;74.22
53484;BME280;75581;50.088;19.966;2024-02-26T06:30:09;98279.25;;;3.37;74.31
53484;BME280;75581;50.088;19.966;2024-02-26T06:32:40;98273.90;;;3.41;74.42
53484;BME280;75581;50.088;19.966;2024-02-26T06:35:09;98275.48;;;3.47;74.56
53484;BME280;75581;50.088;19.966;2024-02-26T06:37:40;98274.91;;;3.55;74.75
53484;BME280;75581;50.088;19.966;2024-02-26T06:40:09;98284.81;;;3.63;74.89
53484;BME280;75581;50.088;19.966;2024-02-26T06:42:39;98294.02;;;3.70;74.75
53484;BME280;75581;50.088;19.966;2024-02-26T06:45:08;98296.82;;;3.79;74.74
53484;BME280;75581;50.088;19.966;2024-02-26T06:47:37;98292.10;;;3.88;74.78
53484;BME280;75581;50.088;19.966;2024-02-26T06:50:07;98288.41;;;3.94;74.66
53484;BME280;75581;50.088;19.966;2024-02-26T06:52:36;98293.48;;;4.02;74.58
53484;BME280;75581;50.088;19.966;2024-02-26T06:55:06;98303.66;;;4.10;74.74
53484;BME280;75581;50.088;19.966;2024-02-26T06:57:37;98297.08;;;4.24;74.88
53484;BME280;75581;50.088;19.966;2024-02-26T07:00:06;98282.15;;;4.37;74.74
53484;BME280;75581;50.088;19.966;2024-02-26T07:02:35;98285.73;;;4.49;74.85
53484;BME280;75581;50.088;19.966;2024-02-26T07:05:07;98284.11;;;4.64;74.95
53484;BME280;75581;50.088;19.966;2024-02-26T07:07:36;98288.25;;;4.79;74.89
53484;BME280;75581;50.088;19.966;2024-02-26T07:10:06;98296.46;;;4.95;74.82
53484;BME280;75581;50.088;19.966;2024-02-26T07:12:35;98294.36;;;5.13;74.75
53484;BME280;75581;50.088;19.966;2024-02-26T07:15:05;98290.27;;;5.31;74.69
53484;BME280;75581;50.088;19.966;2024-02-26T07:17:37;98299.48;;;5.52;74.66
53484;BME280;75581;50.088;19.966;2024-02-26T07:20:06;98295.76;;;5.74;74.61
53484;BME280;75581;50.088;19.966;2024-02-26T07:22:37;98297.69;;;5.99;74.54
53484;BME280;75581;50.088;19.966;2024-02-26T07:25:07;98286.73;;;6.24;74.21
53484;BME280;75581;50.088;19.966;2024-02-26T07:27:37;98288.81;;;6.47;73.97
53484;BME280;75581;50.088;19.966;2024-02-26T07:30:07;98291.73;;;6.74;73.87
53484;BME280;75581;50.088;19.966;2024-02-26T07:32:37;98296.79;;;7.03;73.62
53484;BME280;75581;50.088;19.966;2024-02-26T07:35:07;98300.64;;;7.18;72.77
53484;BME280;75581;50.088;19.966;2024-02-26T07:37:36;98292.38;;;7.29;72.46
53484;BME280;75581;50.088;19.966;2024-02-26T07:40:06;98291.73;;;7.40;71.97
53484;BME280;75581;50.088;19.966;2024-02-26T07:42:37;98283.15;;;7.47;71.55
53484;BME280;75581;50.088;19.966;2024-02-26T07:45:06;98281.08;;;7.58;71.59
53484;BME280;75581;50.088;19.966;2024-02-26T07:47:36;98280.44;;;7.66;71.36
53484;BME280;75581;50.088;19.966;2024-02-26T07:50:07;98283.73;;;7.74;71.27
53484;BME280;75581;50.088;19.966;2024-02-26T07:52:38;98292.80;;;7.83;71.33
53484;BME280;75581;50.088;19.966;2024-02-26T07:55:07;98296.67;;;7.90;71.13
53484;BME280;75581;50.088;19.966;2024-02-26T07:57:37;98301.35;;;7.96;70.89
53484;BME280;75581;50.088;19.966;2024-02-26T08:00:06;98300.23;;;7.99;70.48
53484;BME280;75581;50.088;19.966;2024-02-26T08:02:38;98291.25;;;8.00;70.25
53484;BME280;75581;50.088;19.966;2024-02-26T08:05:07;98293.34;;;8.01;70.19
53484;BME280;75581;50.088;19.966;2024-02-26T08:07:36;98301.94;;;8.04;70.28
53484;BME280;75581;50.088;19.966;2024-02-26T08:10:08;98301.73;;;8.07;70.15
53484;BME280;75581;50.088;19.966;2024-02-26T08:12:37;98293.55;;;8.11;70.16
53484;BME280;75581;50.088;19.966;2024-02-26T08:15:07;98293.23;;;8.18;70.05
53484;BME280;75581;50.088;19.966;2024-02-26T08:17:36;98298.84;;;8.28;70.06
53484;BME280;75581;50.088;19.966;2024-02-26T08:20:06;98292.34;;;8.40;70.16
53484;BME280;75581;50.088;19.966;2024-02-26T08:22:35;98293.46;;;8.51;70.07
53484;BME280;75581;50.088;19.966;2024-02-26T08:25:06;98289.94;;;8.64;69.91
53484;BME280;75581;50.088;19.966;2024-02-26T08:27:38;98300.48;;;8.77;69.69
53484;BME280;75581;50.088;19.966;2024-02-26T08:30:07;98302.86;;;8.89;69.54
53484;BME280;75581;50.088;19.966;2024-02-26T08:32:37;98297.60;;;9.02;69.44
53484;BME280;75581;50.088;19.966;2024-02-26T08:35:06;98297.68;;;9.17;69.52
53484;BME280;75581;50.088;19.966;2024-02-26T08:37:35;98295.47;;;9.39;69.33
53484;BME280;75581;50.088;19.966;2024-02-26T08:40:06;98290.30;;;9.79;69.97
53484;BME280;75581;50.088;19.966;2024-02-26T08:42:38;98289.19;;;10.58;69.98
53484;BME280;75581;50.088;19.966;2024-02-26T08:45:08;98293.52;;;10.84;68.43
53484;BME280;75581;50.088;19.966;2024-02-26T08:47:37;98291.10;;;10.98;67.52
53484;BME280;75581;50.088;19.966;2024-02-26T08:50:08;98288.36;;;11.34;67.79
53484;BME280;75581;50.088;19.966;2024-02-26T08:52:38;98290.04;;;12.08;68.37
53484;BME280;75581;50.088;19.966;2024-02-26T08:55:09;98286.38;;;13.90;68.43
53484;BME280;75581;50.088;19.966;2024-02-26T08:57:38;98275.52;;;15.79;66.90
53484;BME280;75581;50.088;19.966;2024-02-26T09:00:07;98262.66;;;18.56;65.46
53484;BME280;75581;50.088;19.966;2024-02-26T09:02:37;98261.72;;;20.01;59.96
53484;BME280;75581;50.088;19.966;2024-02-26T09:05:11;98265.37;;;20.99;56.58
53484;BME280;75581;50.088;19.966;2024-02-26T09:07:40;98258.38;;;21.47;53.80
53484;BME280;75581;50.088;19.966;2024-02-26T09:10:09;98254.38;;;21.44;51.84
53484;BME280;75581;50.088;19.966;2024-02-26T09:12:39;98259.91;;;21.68;51.07
53484;BME280;75581;50.088;19.966;2024-02-26T09:15:08;98257.02;;;22.29;49.28
53484;BME280;75581;50.088;19.966;2024-02-26T09:17:38;98256.25;;;22.62;47.94
53484;BME280;75581;50.088;19.966;2024-02-26T09:20:07;98260.13;;;22.45;46.87
53484;BME280;75581;50.088;19.966;2024-02-26T09:22:38;98265.91;;;21.60;44.63
53484;BME280;75581;50.088;19.966;2024-02-26T09:25:07;98266.61;;;20.38;44.89
53484;BME280;75581;50.088;19.966;2024-02-26T09:27:36;98266.74;;;19.85;46.64
53484;BME280;75581;50.088;19.966;2024-02-26T09:30:13;98263.83;;;19.89;47.39
53484;BME280;75581;50.088;19.966;2024-02-26T09:32:46;98257.36;;;19.71;47.38
53484;BME280;75581;50.088;19.966;2024-02-26T09:35:16;98257.85;;;19.11;47.01
53484;BME280;75581;50.088;19.966;2024-02-26T09:37:44;98265.71;;;18.40;46.91
53484;BME280;75581;50.088;19.966;2024-02-26T09:40:13;98271.53;;;17.70;47.04
53484;BME280;75581;50.088;19.966;2024-02-26T09:42:45;98274.42;;;17.06;47.55
53484;BME280;75581;50.088;19.966;2024-02-26T09:45:18;98275.95;;;16.48;48.67
53484;BME280;75581;50.088;19.966;2024-02-26T09:47:48;98279.85;;;15.88;49.33
53484;BME280;75581;50.088;19.966;2024-02-26T09:50:20;98276.59;;;15.34;50.31
53484;BME280;75581;50.088;19.966;2024-02-26T09:52:52;98280.07;;;14.87;51.21
53484;BME280;75581;50.088;19.966;2024-02-26T09:55:22;98277.69;;;14.40;52.00
53484;BME280;75581;50.088;19.966;2024-02-26T09:57:52;98277.31;;;14.08;53.14
53484;BME280;75581;50.088;19.966;2024-02-26T10:00:22;98274.49;;;13.88;53.79
53484;BME280;75581;50.088;19.966;2024-02-26T10:02:52;98276.67;;;13.76;54.50
53484;BME280;75581;50.088;19.966;2024-02-26T10:05:22;98272.30;;;13.75;55.11
53484;BME280;75581;50.088;19.966;2024-02-26T10:07:52;98269.98;;;13.81;55.46
53484;BME280;75581;50.088;19.966;2024-02-26T10:10:24;98264.67;;;13.79;55.44
53484;BME280;75581;50.088;19.966;2024-02-26T10:12:56;98256.23;;;13.80;55.84
53484;BME280;75581;50.088;19.966;2024-02-26T10:15:25;98252.15;;;13.90;55.99
53484;BME280;75581;50.088;19.966;2024-02-26T10:17:54;98252.65;;;13.94;56.06
53484;BME280;75581;50.088;19.966;2024-02-26T10:20:24;98252.60;;;14.05;56.30
53484;BME280;75581;50.088;19.966;2024-02-26T10:22:54;98256.02;;;14.19;56.20
53484;BME280;75581;50.088;19.966;2024-02-26T10:25:23;98252.30;;;14.27;56.13
53484;BME280;75581;50.088;19.966;2024-02-26T10:27:53;98253.22;;;14.31;55.91
53484;BME280;75581;50.088;19.966;2024-02-26T10:30:22;98252.06;;;14.30;55.48
53484;BME280;75581;50.088;19.966;2024-02-26T10:32:51;98253.29;;;14.33;55.30
53484;BME280;75581;50.088;19.966;2024-02-26T10:35:21;98252.86;;;14.37;55.17
53484;BME280;75581;50.088;19.966;2024-02-26T10:37:51;98255.27;;;14.44;55.13
53484;BME280;75581;50.088;19.966;2024-02-26T10:40:21;98249.52;;;14.51;54.99
53484;BME280;75581;50.088;19.966;2024-02-26T10:42:50;98247.11;;;14.53;54.79
53484;BME280;75581;50.088;19.966;2024-02-26T10:45:19;98240.77;;;14.53;54.77
53484;BME280;75581;50.088;19.966;2024-02-26T10:47:48;98238.23;;;14.50;54.94
53484;BME280;75581;50.088;19.966;2024-02-26T10:50:17;98241.13;;;14.49;54.99
53484;BME280;75581;50.088;19.966;2024-02-26T10:52:48;98240.86;;;14.51;54.77
53484;BME280;75581;50.088;19.966;2024-02-26T10:55:19;98238.07;;;14.61;54.95
53484;BME280;75581;50.088;19.966;2024-02-26T10:57:52;98230.82;;;14.70;55.01
53484;BME280;75581;50.088;19.966;2024-02-26T11:00:21;98231.52;;;14.77;54.22
53484;BME280;75581;50.088;19.966;2024-02-26T11:02:51;98226.53;;;14.89;54.53
53484;BME280;75581;50.088;19.966;2024-02-26T11:05:21;98224.28;;;15.02;53.84
53484;BME280;75581;50.088;19.966;2024-02-26T11:07:51;98228.90;;;15.08;53.71
53484;BME280;75581;50.088;19.966;2024-02-26T11:10:21;98222.42;;;15.18;53.56
53484;BME280;75581;50.088;19.966;2024-02-26T11:12:52;98218.35;;;15.17;52.87
53484;BME280;75581;50.088;19.966;2024-02-26T11:15:23;98218.04;;;15.15;53.38
53484;BME280;75581;50.088;19.966;2024-02-26T11:17:53;98215.77;;;15.13;53.37
53484;BME280;75581;50.088;19.966;2024-02-26T11:20:25;98215.77;;;15.11;53.28
53484;BME280;75581;50.088;19.966;2024-02-26T11:22:57;98220.04;;;15.10;53.37
53484;BME280;75581;50.088;19.966;2024-02-26T11:25:26;98214.09;;;15.10;53.17
53484;BME280;75581;50.088;19.966;2024-02-26T11:27:59;98207.23;;;15.13;53.39
53484;BME280;75581;50.088;19.966;2024-02-26T11:30:33;98206.41;;;15.21;53.07
53484;BME280;75581;50.088;19.966;2024-02-26T11:33:06;98208.16;;;15.29;53.21
53484;BME280;75581;50.088;19.966;2024-02-26T11:35:37;98213.23;;;15.41;53.02
53484;BME280;75581;50.088;19.966;2024-02-26T11:38:07;98210.23;;;15.54;52.90
53484;BME280;75581;50.088;19.966;2024-02-26T11:40:39;98211.71;;;15.72;53.21
53484;BME280;75581;50.088;19.966;2024-02-26T11:43:09;98212.84;;;15.92;52.88
53484;BME280;75581;50.088;19.966;2024-02-26T11:48:17;98195.73;;;16.28;52.39
53484;BME280;75581;50.088;19.966;2024-02-26T11:50:50;98192.24;;;16.38;51.75
53484;BME280;75581;50.088;19.966;2024-02-26T11:53:26;98195.20;;;16.48;51.61
53484;BME280;75581;50.088;19.966;2024-02-26T12:01:40;98205.67;;;16.62;50.17
53484;BME280;75581;50.088;19.966;2024-02-26T12:04:18;98202.95;;;16.62;50.38
53484;BME280;75581;50.088;19.966;2024-02-26T12:06:55;98202.31;;;16.62;50.35
53484;BME280;75581;50.088;19.966;2024-02-26T12:09:35;98202.41;;;16.61;50.09
53484;BME280;75581;50.088;19.966;2024-02-26T12:12:06;98207.52;;;16.52;49.37
53484;BME280;75581;50.088;19.966;2024-02-26T12:14:40;98204.72;;;16.40;48.87
53484;BME280;75581;50.088;19.966;2024-02-26T12:17:23;98200.95;;;16.30;48.80
53484;BME280;75581;50.088;19.966;2024-02-26T12:19:52;98199.54;;;16.24;49.13
53484;BME280;75581;50.088;19.966;2024-02-26T12:22:23;98199.46;;;16.21;49.40
53484;BME280;75581;50.088;19.966;2024-02-26T12:24:59;98189.30;;;16.19;49.57
53484;BME280;75581;50.088;19.966;2024-02-26T12:27:31;98179.52;;;16.17;49.84
53484;BME280;75581;50.088;19.966;2024-02-26T12:30:04;98181.66;;;16.18;49.92
53484;BME280;75581;50.088;19.966;2024-02-26T12:32:35;98186.57;;;16.21;50.01
53484;BME280;75581;50.088;19.966;2024-02-26T12:35:06;98193.44;;;16.25;49.68
53484;BME280;75581;50.088;19.966;2024-02-26T12:37:35;98196.02;;;16.26;49.42
53484;BME280;75581;50.088;19.966;2024-02-26T12:40:10;98194.13;;;16.23;49.33
53484;BME280;75581;50.088;19.966;2024-02-26T12:42:40;98196.82;;;16.20;49.64
53484;BME280;75581;50.088;19.966;2024-02-26T12:45:11;98199.79;;;16.17;49.64
53484;BME280;75581;50.088;19.966;2024-02-26T12:47:43;98195.27;;;16.15;49.90
53484;BME280;75581;50.088;19.966;2024-02-26T12:50:12;98195.35;;;16.13;49.66
53484;BME280;75581;50.088;19.966;2024-02-26T12:52:44;98192.29;;;16.10;49.71
53484;BME280;75581;50.088;19.966;2024-02-26T12:55:15;98195.06;;;16.10;49.97
53484;BME280;75581;50.088;19.966;2024-02-26T12:57:45;98195.51;;;16.13;49.96
53484;BME280;75581;50.088;19.966;2024-02-26T13:00:21;98194.08;;;16.12;50.08
53484;BME280;75581;50.088;19.966;2024-02-26T13:02:53;98198.45;;;16.09;49.99
53484;BME280;75581;50.088;19.966;2024-02-26T13:05:24;98199.17;;;16.05;50.03
53484;BME280;75581;50.088;19.966;2024-02-26T13:07:54;98196.72;;;16.01;50.11
53484;BME280;75581;50.088;19.966;2024-02-26T13:10:23;98191.67;;;15.99;50.33
53484;BME280;75581;50.088;19.966;2024-02-26T13:12:54;98192.02;;;15.98;50.34
53484;BME280;75581;50.088;19.966;2024-02-26T13:15:23;98191.45;;;15.98;50.51
53484;BME280;75581;50.088;19.966;2024-02-26T13:17:52;98191.06;;;15.96;50.36
53484;BME280;75581;50.088;19.966;2024-02-26T13:20:26;98193.54;;;15.94;50.52